sensor_id;sensor_type;location;lat;lon;timestamp;temperature;humidity
11126;DHT22;5617;54.046;10.676;2022-08-19T00:01:30;20.70;99.90
11126;DHT22;5617;54.046;10.676;2022-08-19T00:03:37;20.60;99.90
11126;DHT22;5617;54.046;10.676;2022-08-19T00:05:45;20.60;99.90
11126;DHT22;5617;54.046;10.676;2022-08-19T00:07:52;20.50;99.90
11126;DHT22;5617;54.046;10.676;2022-08-19T00:10:02;20.50;99.90
11126;DHT22;5617;54.046;10.676;2022-08-19T00:12:10;20.50;99.90
11126;DHT22;5617;54.046;10.676;2022-08-19T00:14:19;20.50;99.90
11126;DHT22;5617;54.046;10.676;2022-08-19T00:16:28;20.50;99.90
11126;DHT22;5617;54.046;10.676;2022-08-19T00:18:35;20.40;99.90
11126;DHT22;5617;54.046;10.676;2022-08-19T00:20:43;20.40;99.90
11126;DHT22;5617;54.046;10.676;2022-08-19T00:22:51;20.40;99.90
11126;DHT22;5617;54.046;10.676;2022-08-19T00:24:59;20.40;99.90
11126;DHT22;5617;54.046;10.676;2022-08-19T00:27:08;20.40;99.90
11126;DHT22;5617;54.046;10.676;2022-08-19T00:29:19;20.40;99.90
11126;DHT22;5617;54.046;10.676;2022-08-19T00:31:30;20.40;99.90
11126;DHT22;5617;54.046;10.676;2022-08-19T00:33:39;20.40;99.90
11126;DHT22;5617;54.046;10.676;2022-08-19T00:35:47;20.50;99.90
11126;DHT22;5617;54.046;10.676;2022-08-19T00:37:56;20.50;99.90
11126;DHT22;5617;54.046;10.676;2022-08-19T00:40:07;20.50;99.90
11126;DHT22;5617;54.046;10.676;2022-08-19T00:42:16;20.50;99.90
11126;DHT22;5617;54.046;10.676;2022-08-19T00:44:26;20.50;99.90
11126;DHT22;5617;54.046;10.676;2022-08-19T00:46:36;20.40;99.90
11126;DHT22;5617;54.046;10.676;2022-08-19T00:48:44;20.40;99.90
11126;DHT22;5617;54.046;10.676;2022-08-19T00:50:52;20.40;99.90
11126;DHT22;5617;54.046;10.676;2022-08-19T00:53:02;20.50;99.90
11126;DHT22;5617;54.046;10.676;2022-08-19T00:55:19;20.40;99.90
11126;DHT22;5617;54.046;10.676;2022-08-19T00:57:32;20.40;99.90
11126;DHT22;5617;54.046;10.676;2022-08-19T00:59:44;20.40;99.90
11126;DHT22;5617;54.046;10.676;2022-08-19T01:01:53;20.40;99.90
11126;DHT22;5617;54.046;10.676;2022-08-19T01:04:02;20.40;99.90
11126;DHT22;5617;54.046;10.676;2022-08-19T01:06:09;20.40;99.90
11126;DHT22;5617;54.046;10.676;2022-08-19T01:08:19;20.30;99.90
11126;DHT22;5617;54.046;10.676;2022-08-19T01:10:29;20.30;99.90
11126;DHT22;5617;54.046;10.676;2022-08-19T01:12:39;20.30;99.90
11126;DHT22;5617;54.046;10.676;2022-08-19T01:14:47;20.30;99.90
11126;DHT22;5617;54.046;10.676;2022-08-19T01:16:56;20.30;99.90
11126;DHT22;5617;54.046;10.676;2022-08-19T01:19:12;20.30;99.90
11126;DHT22;5617;54.046;10.676;2022-08-19T01:21:25;20.30;99.90
11126;DHT22;5617;54.046;10.676;2022-08-19T01:23:35;20.30;99.90
11126;DHT22;5617;54.046;10.676;2022-08-19T01:25:52;20.30;99.90
11126;DHT22;5617;54.046;10.676;2022-08-19T01:28:02;20.30;99.90
11126;DHT22;5617;54.046;10.676;2022-08-19T01:30:12;20.30;99.90
11126;DHT22;5617;54.046;10.676;2022-08-19T01:32:20;20.30;99.90
11126;DHT22;5617;54.046;10.676;2022-08-19T01:34:28;20.30;99.90
11126;DHT22;5617;54.046;10.676;2022-08-19T01:36:39;20.20;99.90
11126;DHT22;5617;54.046;10.676;2022-08-19T01:38:49;20.20;99.90
11126;DHT22;5617;54.046;10.676;2022-08-19T01:40:59;20.10;99.90
11126;DHT22;5617;54.046;10.676;2022-08-19T01:43:07;20.10;99.90
11126;DHT22;5617;54.046;10.676;2022-08-19T01:45:16;20.10;99.90
11126;DHT22;5617;54.046;10.676;2022-08-19T01:47:24;20.10;99.90
11126;DHT22;5617;54.046;10.676;2022-08-19T01:49:32;20.10;99.90
11126;DHT22;5617;54.046;10.676;2022-08-19T01:51:39;20.10;99.90
11126;DHT22;5617;54.046;10.676;2022-08-19T01:53:49;20.10;99.90
11126;DHT22;5617;54.046;10.676;2022-08-19T01:55:57;20.10;99.90
11126;DHT22;5617;54.046;10.676;2022-08-19T01:58:06;20.10;99.90
11126;DHT22;5617;54.046;10.676;2022-08-19T02:00:16;20.10;99.90
11126;DHT22;5617;54.046;10.676;2022-08-19T02:02:34;20.10;99.90
11126;DHT22;5617;54.046;10.676;2022-08-19T02:04:41;20.10;99.90
11126;DHT22;5617;54.046;10.676;2022-08-19T02:06:49;20.10;99.90
11126;DHT22;5617;54.046;10.676;2022-08-19T02:08:58;20.10;99.90
11126;DHT22;5617;54.046;10.676;2022-08-19T02:11:06;20.10;99.90
11126;DHT22;5617;54.046;10.676;2022-08-19T02:13:14;20.10;99.90
11126;DHT22;5617;54.046;10.676;2022-08-19T02:15:22;20.10;99.90
11126;DHT22;5617;54.046;10.676;2022-08-19T02:17:29;20.00;99.90
11126;DHT22;5617;54.046;10.676;2022-08-19T02:19:38;20.00;99.90
11126;DHT22;5617;54.046;10.676;2022-08-19T02:21:46;20.00;99.90
11126;DHT22;5617;54.046;10.676;2022-08-19T02:23:54;20.00;99.90
11126;DHT22;5617;54.046;10.676;2022-08-19T02:26:04;20.00;99.90
11126;DHT22;5617;54.046;10.676;2022-08-19T02:28:13;20.00;99.90
11126;DHT22;5617;54.046;10.676;2022-08-19T02:30:20;20.00;99.90
11126;DHT22;5617;54.046;10.676;2022-08-19T02:32:28;20.00;99.90
11126;DHT22;5617;54.046;10.676;2022-08-19T02:34:36;20.00;99.90
11126;DHT22;5617;54.046;10.676;2022-08-19T02:36:44;20.00;99.90
11126;DHT22;5617;54.046;10.676;2022-08-19T02:38:52;20.00;99.90
11126;DHT22;5617;54.046;10.676;2022-08-19T02:41:02;20.00;99.90
11126;DHT22;5617;54.046;10.676;2022-08-19T02:43:11;20.00;99.90
11126;DHT22;5617;54.046;10.676;2022-08-19T02:45:18;20.00;99.90
11126;DHT22;5617;54.046;10.676;2022-08-19T02:47:26;19.90;99.90
11126;DHT22;5617;54.046;10.676;2022-08-19T02:49:34;19.90;99.90
11126;DHT22;5617;54.046;10.676;2022-08-19T02:51:45;19.90;99.90
11126;DHT22;5617;54.046;10.676;2022-08-19T02:53:53;20.00;99.90
11126;DHT22;5617;54.046;10.676;2022-08-19T02:56:05;20.00;99.90
11126;DHT22;5617;54.046;10.676;2022-08-19T02:58:15;19.90;99.90
11126;DHT22;5617;54.046;10.676;2022-08-19T03:00:23;19.90;99.90
11126;DHT22;5617;54.046;10.676;2022-08-19T03:02:31;19.90;99.90
11126;DHT22;5617;54.046;10.676;2022-08-19T03:04:41;19.90;99.90
11126;DHT22;5617;54.046;10.676;2022-08-19T03:06:50;19.90;99.90
11126;DHT22;5617;54.046;10.676;2022-08-19T03:08:58;19.90;99.90
11126;DHT22;5617;54.046;10.676;2022-08-19T03:11:13;19.90;99.90
11126;DHT22;5617;54.046;10.676;2022-08-19T03:13:22;19.90;99.90
11126;DHT22;5617;54.046;10.676;2022-08-19T03:15:30;19.90;99.90
11126;DHT22;5617;54.046;10.676;2022-08-19T03:17:40;20.00;99.90
11126;DHT22;5617;54.046;10.676;2022-08-19T03:19:47;20.00;99.90
11126;DHT22;5617;54.046;10.676;2022-08-19T03:21:55;20.00;99.90
11126;DHT22;5617;54.046;10.676;2022-08-19T03:24:06;20.00;99.90
11126;DHT22;5617;54.046;10.676;2022-08-19T03:26:14;19.90;99.90
11126;DHT22;5617;54.046;10.676;2022-08-19T03:28:23;20.00;99.90
11126;DHT22;5617;54.046;10.676;2022-08-19T03:30:34;19.90;99.90
11126;DHT22;5617;54.046;10.676;2022-08-19T03:32:42;20.00;99.90
11126;DHT22;5617;54.046;10.676;2022-08-19T03:34:50;20.00;99.90
11126;DHT22;5617;54.046;10.676;2022-08-19T03:37:02;20.00;99.90
11126;DHT22;5617;54.046;10.676;2022-08-19T03:39:12;20.10;99.90
11126;DHT22;5617;54.046;10.676;2022-08-19T03:41:23;20.00;99.90
11126;DHT22;5617;54.046;10.676;2022-08-19T03:43:32;20.00;99.90
11126;DHT22;5617;54.046;10.676;2022-08-19T03:45:40;20.00;99.90
11126;DHT22;5617;54.046;10.676;2022-08-19T03:47:48;20.10;99.90
11126;DHT22;5617;54.046;10.676;2022-08-19T03:49:55;20.10;99.90
11126;DHT22;5617;54.046;10.676;2022-08-19T03:52:04;20.10;99.90
11126;DHT22;5617;54.046;10.676;2022-08-19T03:54:14;20.10;99.90
11126;DHT22;5617;54.046;10.676;2022-08-19T03:56:22;20.00;99.90
11126;DHT22;5617;54.046;10.676;2022-08-19T03:58:33;20.10;99.90
11126;DHT22;5617;54.046;10.676;2022-08-19T04:00:41;20.10;99.90
11126;DHT22;5617;54.046;10.676;2022-08-19T04:02:50;20.10;99.90
11126;DHT22;5617;54.046;10.676;2022-08-19T04:04:58;20.10;99.90
11126;DHT22;5617;54.046;10.676;2022-08-19T04:07:07;20.10;99.90
11126;DHT22;5617;54.046;10.676;2022-08-19T04:09:15;20.10;99.90
11126;DHT22;5617;54.046;10.676;2022-08-19T04:11:25;20.00;99.90
11126;DHT22;5617;54.046;10.676;2022-08-19T04:13:34;20.00;99.90
11126;DHT22;5617;54.046;10.676;2022-08-19T04:15:44;20.00;99.90
11126;DHT22;5617;54.046;10.676;2022-08-19T04:17:52;20.00;99.90
11126;DHT22;5617;54.046;10.676;2022-08-19T04:20:00;20.00;99.90
11126;DHT22;5617;54.046;10.676;2022-08-19T04:22:11;20.00;99.90
11126;DHT22;5617;54.046;10.676;2022-08-19T04:24:19;20.10;99.90
11126;DHT22;5617;54.046;10.676;2022-08-19T04:26:30;20.10;99.90
11126;DHT22;5617;54.046;10.676;2022-08-19T04:28:39;20.00;99.90
11126;DHT22;5617;54.046;10.676;2022-08-19T04:30:48;20.00;99.90
11126;DHT22;5617;54.046;10.676;2022-08-19T04:32:56;20.00;99.90
11126;DHT22;5617;54.046;10.676;2022-08-19T04:35:04;20.00;99.90
11126;DHT22;5617;54.046;10.676;2022-08-19T04:37:12;20.00;99.90
11126;DHT22;5617;54.046;10.676;2022-08-19T04:39:22;20.00;99.90
11126;DHT22;5617;54.046;10.676;2022-08-19T04:41:50;19.90;99.90
11126;DHT22;5617;54.046;10.676;2022-08-19T04:44:17;20.00;99.90
11126;DHT22;5617;54.046;10.676;2022-08-19T04:46:25;20.00;99.90
11126;DHT22;5617;54.046;10.676;2022-08-19T04:48:35;20.00;99.90
11126;DHT22;5617;54.046;10.676;2022-08-19T04:50:44;20.00;99.90
11126;DHT22;5617;54.046;10.676;2022-08-19T04:52:52;20.00;99.90
11126;DHT22;5617;54.046;10.676;2022-08-19T04:55:01;20.00;99.90
11126;DHT22;5617;54.046;10.676;2022-08-19T04:57:09;20.00;99.90
11126;DHT22;5617;54.046;10.676;2022-08-19T04:59:19;19.90;99.90
11126;DHT22;5617;54.046;10.676;2022-08-19T05:01:28;20.00;99.90
11126;DHT22;5617;54.046;10.676;2022-08-19T05:03:37;20.00;99.90
11126;DHT22;5617;54.046;10.676;2022-08-19T05:05:46;19.90;99.90
11126;DHT22;5617;54.046;10.676;2022-08-19T05:07:55;19.90;99.90
11126;DHT22;5617;54.046;10.676;2022-08-19T05:10:05;19.90;99.90
11126;DHT22;5617;54.046;10.676;2022-08-19T05:12:13;19.90;99.90
11126;DHT22;5617;54.046;10.676;2022-08-19T05:14:22;19.90;99.90
11126;DHT22;5617;54.046;10.676;2022-08-19T05:16:31;19.90;99.90
11126;DHT22;5617;54.046;10.676;2022-08-19T05:18:39;19.90;99.90
11126;DHT22;5617;54.046;10.676;2022-08-19T05:21:06;19.90;99.90
11126;DHT22;5617;54.046;10.676;2022-08-19T05:23:32;19.90;99.90
11126;DHT22;5617;54.046;10.676;2022-08-19T05:25:40;19.90;99.90
11126;DHT22;5617;54.046;10.676;2022-08-19T05:27:48;19.80;99.90
11126;DHT22;5617;54.046;10.676;2022-08-19T05:29:58;19.90;99.90
11126;DHT22;5617;54.046;10.676;2022-08-19T05:32:07;19.90;99.90
11126;DHT22;5617;54.046;10.676;2022-08-19T05:34:15;19.90;99.90
11126;DHT22;5617;54.046;10.676;2022-08-19T05:36:23;19.90;99.90
11126;DHT22;5617;54.046;10.676;2022-08-19T05:38:31;19.80;99.90
11126;DHT22;5617;54.046;10.676;2022-08-19T05:40:39;19.70;99.90
11126;DHT22;5617;54.046;10.676;2022-08-19T05:42:47;19.80;99.90
11126;DHT22;5617;54.046;10.676;2022-08-19T05:44:56;19.80;99.90
11126;DHT22;5617;54.046;10.676;2022-08-19T05:47:06;19.80;99.90
11126;DHT22;5617;54.046;10.676;2022-08-19T05:49:15;19.80;99.90
11126;DHT22;5617;54.046;10.676;2022-08-19T05:51:23;19.80;99.90
11126;DHT22;5617;54.046;10.676;2022-08-19T05:53:31;19.80;99.90
11126;DHT22;5617;54.046;10.676;2022-08-19T05:55:38;19.80;99.90
11126;DHT22;5617;54.046;10.676;2022-08-19T05:57:48;19.90;99.90
11126;DHT22;5617;54.046;10.676;2022-08-19T05:59:55;19.80;99.90
11126;DHT22;5617;54.046;10.676;2022-08-19T06:02:07;19.80;99.90
11126;DHT22;5617;54.046;10.676;2022-08-19T06:04:15;19.80;99.90
11126;DHT22;5617;54.046;10.676;2022-08-19T06:06:25;19.90;99.90
11126;DHT22;5617;54.046;10.676;2022-08-19T06:08:34;19.90;99.90
11126;DHT22;5617;54.046;10.676;2022-08-19T06:10:42;19.80;99.90
11126;DHT22;5617;54.046;10.676;2022-08-19T06:12:50;19.90;99.90
11126;DHT22;5617;54.046;10.676;2022-08-19T06:14:58;19.80;99.90
11126;DHT22;5617;54.046;10.676;2022-08-19T06:17:07;19.90;99.90
11126;DHT22;5617;54.046;10.676;2022-08-19T06:19:17;19.90;99.90
11126;DHT22;5617;54.046;10.676;2022-08-19T06:21:27;19.90;99.90
11126;DHT22;5617;54.046;10.676;2022-08-19T06:23:36;19.90;99.90
11126;DHT22;5617;54.046;10.676;2022-08-19T06:25:45;20.00;99.90
11126;DHT22;5617;54.046;10.676;2022-08-19T06:27:52;20.00;99.90
11126;DHT22;5617;54.046;10.676;2022-08-19T06:30:00;19.90;99.90
11126;DHT22;5617;54.046;10.676;2022-08-19T06:32:09;20.00;99.90
11126;DHT22;5617;54.046;10.676;2022-08-19T06:34:18;20.00;99.90
11126;DHT22;5617;54.046;10.676;2022-08-19T06:36:30;20.00;99.90
11126;DHT22;5617;54.046;10.676;2022-08-19T06:38:40;20.10;99.90
11126;DHT22;5617;54.046;10.676;2022-08-19T06:40:47;20.00;99.90
11126;DHT22;5617;54.046;10.676;2022-08-19T06:42:55;20.10;99.90
11126;DHT22;5617;54.046;10.676;2022-08-19T06:45:05;20.20;99.90
11126;DHT22;5617;54.046;10.676;2022-08-19T06:47:17;20.20;99.90
11126;DHT22;5617;54.046;10.676;2022-08-19T06:49:25;20.20;99.90
11126;DHT22;5617;54.046;10.676;2022-08-19T06:51:37;20.20;99.90
11126;DHT22;5617;54.046;10.676;2022-08-19T06:53:45;20.20;99.90
11126;DHT22;5617;54.046;10.676;2022-08-19T06:55:53;20.20;99.90
11126;DHT22;5617;54.046;10.676;2022-08-19T06:58:10;20.30;99.90
11126;DHT22;5617;54.046;10.676;2022-08-19T07:00:18;20.30;99.90
11126;DHT22;5617;54.046;10.676;2022-08-19T07:02:27;20.40;99.90
11126;DHT22;5617;54.046;10.676;2022-08-19T07:04:35;20.40;99.90
11126;DHT22;5617;54.046;10.676;2022-08-19T07:06:45;20.40;99.90
11126;DHT22;5617;54.046;10.676;2022-08-19T07:08:52;20.30;99.90
11126;DHT22;5617;54.046;10.676;2022-08-19T07:11:00;20.30;99.90
11126;DHT22;5617;54.046;10.676;2022-08-19T07:13:08;20.30;99.90
11126;DHT22;5617;54.046;10.676;2022-08-19T07:15:16;20.30;99.90
11126;DHT22;5617;54.046;10.676;2022-08-19T07:17:25;20.30;99.90
11126;DHT22;5617;54.046;10.676;2022-08-19T07:19:35;20.40;99.90
11126;DHT22;5617;54.046;10.676;2022-08-19T07:21:42;20.40;99.90
11126;DHT22;5617;54.046;10.676;2022-08-19T07:23:50;20.40;99.90
11126;DHT22;5617;54.046;10.676;2022-08-19T07:26:04;20.40;99.90
11126;DHT22;5617;54.046;10.676;2022-08-19T07:28:12;20.50;99.90
11126;DHT22;5617;54.046;10.676;2022-08-19T07:30:19;20.40;99.90
11126;DHT22;5617;54.046;10.676;2022-08-19T07:32:28;20.40;99.90
11126;DHT22;5617;54.046;10.676;2022-08-19T07:34:38;20.50;99.90
11126;DHT22;5617;54.046;10.676;2022-08-19T07:36:49;20.50;99.90
11126;DHT22;5617;54.046;10.676;2022-08-19T07:38:57;20.50;99.90
11126;DHT22;5617;54.046;10.676;2022-08-19T07:41:06;20.60;99.90
11126;DHT22;5617;54.046;10.676;2022-08-19T07:43:14;20.60;99.90
11126;DHT22;5617;54.046;10.676;2022-08-19T07:45:23;20.70;99.90
11126;DHT22;5617;54.046;10.676;2022-08-19T07:47:30;20.70;99.90
11126;DHT22;5617;54.046;10.676;2022-08-19T07:49:40;20.80;99.90
11126;DHT22;5617;54.046;10.676;2022-08-19T07:51:50;20.80;99.90
11126;DHT22;5617;54.046;10.676;2022-08-19T07:53:58;20.80;99.90
11126;DHT22;5617;54.046;10.676;2022-08-19T07:56:11;20.90;99.90
11126;DHT22;5617;54.046;10.676;2022-08-19T07:58:21;20.90;99.90
11126;DHT22;5617;54.046;10.676;2022-08-19T08:00:29;20.90;99.90
11126;DHT22;5617;54.046;10.676;2022-08-19T08:02:36;21.00;99.90
11126;DHT22;5617;54.046;10.676;2022-08-19T08:04:47;21.10;99.90
11126;DHT22;5617;54.046;10.676;2022-08-19T08:07:12;21.00;99.90
11126;DHT22;5617;54.046;10.676;2022-08-19T08:09:40;21.10;99.90
11126;DHT22;5617;54.046;10.676;2022-08-19T08:11:53;21.10;99.90
11126;DHT22;5617;54.046;10.676;2022-08-19T08:14:01;21.00;99.90
11126;DHT22;5617;54.046;10.676;2022-08-19T08:16:09;21.00;99.90
11126;DHT22;5617;54.046;10.676;2022-08-19T08:18:17;21.10;99.90
11126;DHT22;5617;54.046;10.676;2022-08-19T08:20:27;21.10;99.90
11126;DHT22;5617;54.046;10.676;2022-08-19T08:22:35;21.10;99.90
11126;DHT22;5617;54.046;10.676;2022-08-19T08:25:08;21.10;99.90
11126;DHT22;5617;54.046;10.676;2022-08-19T08:27:20;21.10;99.90
11126;DHT22;5617;54.046;10.676;2022-08-19T08:29:29;21.10;99.90
11126;DHT22;5617;54.046;10.676;2022-08-19T08:31:37;21.20;99.90
11126;DHT22;5617;54.046;10.676;2022-08-19T08:33:45;21.20;99.90
11126;DHT22;5617;54.046;10.676;2022-08-19T08:35:54;21.20;99.90
11126;DHT22;5617;54.046;10.676;2022-08-19T08:38:03;21.20;99.90
11126;DHT22;5617;54.046;10.676;2022-08-19T08:40:17;21.20;99.90
11126;DHT22;5617;54.046;10.676;2022-08-19T08:42:30;21.30;99.90
11126;DHT22;5617;54.046;10.676;2022-08-19T08:44:43;21.20;99.90
11126;DHT22;5617;54.046;10.676;2022-08-19T08:46:58;21.20;99.90
11126;DHT22;5617;54.046;10.676;2022-08-19T08:49:18;21.30;99.90
11126;DHT22;5617;54.046;10.676;2022-08-19T08:51:32;21.30;99.90
11126;DHT22;5617;54.046;10.676;2022-08-19T08:53:42;21.30;99.90
11126;DHT22;5617;54.046;10.676;2022-08-19T08:55:51;21.30;99.90
11126;DHT22;5617;54.046;10.676;2022-08-19T08:58:01;21.40;99.90
11126;DHT22;5617;54.046;10.676;2022-08-19T09:00:14;21.40;99.90
11126;DHT22;5617;54.046;10.676;2022-08-19T09:02:22;21.40;99.90
11126;DHT22;5617;54.046;10.676;2022-08-19T09:04:34;21.40;99.90
11126;DHT22;5617;54.046;10.676;2022-08-19T09:06:51;21.40;99.90
11126;DHT22;5617;54.046;10.676;2022-08-19T09:09:05;21.40;99.90
11126;DHT22;5617;54.046;10.676;2022-08-19T09:13:48;21.40;99.90
11126;DHT22;5617;54.046;10.676;2022-08-19T09:16:03;21.50;99.90
11126;DHT22;5617;54.046;10.676;2022-08-19T09:18:13;21.50;99.90
11126;DHT22;5617;54.046;10.676;2022-08-19T09:20:22;21.50;99.90
11126;DHT22;5617;54.046;10.676;2022-08-19T09:22:33;21.50;99.90
11126;DHT22;5617;54.046;10.676;2022-08-19T09:24:42;21.50;99.90
11126;DHT22;5617;54.046;10.676;2022-08-19T09:26:53;21.50;99.90
11126;DHT22;5617;54.046;10.676;2022-08-19T09:29:01;21.50;99.90
11126;DHT22;5617;54.046;10.676;2022-08-19T09:31:12;21.50;99.90
11126;DHT22;5617;54.046;10.676;2022-08-19T09:33:20;21.60;99.90
11126;DHT22;5617;54.046;10.676;2022-08-19T09:35:29;21.60;99.90
11126;DHT22;5617;54.046;10.676;2022-08-19T09:37:39;21.70;99.90
11126;DHT22;5617;54.046;10.676;2022-08-19T09:39:47;21.60;99.90
11126;DHT22;5617;54.046;10.676;2022-08-19T09:41:55;21.70;99.90
11126;DHT22;5617;54.046;10.676;2022-08-19T09:44:03;21.80;99.90
11126;DHT22;5617;54.046;10.676;2022-08-19T09:46:11;21.70;99.90
11126;DHT22;5617;54.046;10.676;2022-08-19T09:48:21;21.70;99.90
11126;DHT22;5617;54.046;10.676;2022-08-19T09:50:30;21.70;99.90
11126;DHT22;5617;54.046;10.676;2022-08-19T09:52:43;21.70;99.90
11126;DHT22;5617;54.046;10.676;2022-08-19T09:54:52;21.70;99.90
11126;DHT22;5617;54.046;10.676;2022-08-19T09:57:03;21.80;99.90
11126;DHT22;5617;54.046;10.676;2022-08-19T09:59:11;21.80;99.90
11126;DHT22;5617;54.046;10.676;2022-08-19T10:01:19;21.80;99.90
11126;DHT22;5617;54.046;10.676;2022-08-19T10:03:29;21.80;99.90
11126;DHT22;5617;54.046;10.676;2022-08-19T10:05:36;21.90;99.90
11126;DHT22;5617;54.046;10.676;2022-08-19T10:07:57;21.90;99.90
11126;DHT22;5617;54.046;10.676;2022-08-19T10:10:10;21.90;99.90
11126;DHT22;5617;54.046;10.676;2022-08-19T10:12:17;21.90;99.90
11126;DHT22;5617;54.046;10.676;2022-08-19T10:14:25;21.90;99.90
11126;DHT22;5617;54.046;10.676;2022-08-19T10:16:36;21.90;99.90
11126;DHT22;5617;54.046;10.676;2022-08-19T10:18:46;21.90;99.90
11126;DHT22;5617;54.046;10.676;2022-08-19T10:21:03;21.90;99.90
11126;DHT22;5617;54.046;10.676;2022-08-19T10:23:15;21.90;99.90
11126;DHT22;5617;54.046;10.676;2022-08-19T10:25:22;21.90;99.90
11126;DHT22;5617;54.046;10.676;2022-08-19T10:27:32;22.00;99.90
11126;DHT22;5617;54.046;10.676;2022-08-19T10:29:41;21.90;99.90
11126;DHT22;5617;54.046;10.676;2022-08-19T10:31:50;22.00;99.90
11126;DHT22;5617;54.046;10.676;2022-08-19T10:34:00;22.00;99.90
11126;DHT22;5617;54.046;10.676;2022-08-19T10:36:10;22.00;99.90
11126;DHT22;5617;54.046;10.676;2022-08-19T10:38:19;22.00;99.90
11126;DHT22;5617;54.046;10.676;2022-08-19T10:40:29;21.90;99.90
11126;DHT22;5617;54.046;10.676;2022-08-19T10:42:37;21.90;99.90
11126;DHT22;5617;54.046;10.676;2022-08-19T10:44:45;21.80;99.90
11126;DHT22;5617;54.046;10.676;2022-08-19T10:46:54;21.80;99.90
11126;DHT22;5617;54.046;10.676;2022-08-19T10:49:03;21.80;99.90
11126;DHT22;5617;54.046;10.676;2022-08-19T10:51:12;21.80;99.90
11126;DHT22;5617;54.046;10.676;2022-08-19T10:53:38;21.80;99.90
11126;DHT22;5617;54.046;10.676;2022-08-19T10:55:46;21.70;99.90
11126;DHT22;5617;54.046;10.676;2022-08-19T10:58:12;21.60;99.90
11126;DHT22;5617;54.046;10.676;2022-08-19T11:00:22;21.70;99.90
11126;DHT22;5617;54.046;10.676;2022-08-19T11:02:29;21.70;99.90
11126;DHT22;5617;54.046;10.676;2022-08-19T11:04:40;21.70;99.90
11126;DHT22;5617;54.046;10.676;2022-08-19T11:06:48;21.70;99.90
11126;DHT22;5617;54.046;10.676;2022-08-19T11:08:58;21.70;99.90
11126;DHT22;5617;54.046;10.676;2022-08-19T11:11:06;21.70;99.90
11126;DHT22;5617;54.046;10.676;2022-08-19T11:13:15;21.70;99.90
11126;DHT22;5617;54.046;10.676;2022-08-19T11:15:22;21.80;99.90
11126;DHT22;5617;54.046;10.676;2022-08-19T11:17:31;21.80;99.90
11126;DHT22;5617;54.046;10.676;2022-08-19T11:19:38;21.70;99.90
11126;DHT22;5617;54.046;10.676;2022-08-19T11:21:47;21.70;99.90
11126;DHT22;5617;54.046;10.676;2022-08-19T11:23:58;21.70;99.90
11126;DHT22;5617;54.046;10.676;2022-08-19T11:26:07;21.70;99.90
11126;DHT22;5617;54.046;10.676;2022-08-19T11:28:14;21.60;99.90
11126;DHT22;5617;54.046;10.676;2022-08-19T11:30:22;21.70;99.90
11126;DHT22;5617;54.046;10.676;2022-08-19T11:32:31;21.70;99.90
11126;DHT22;5617;54.046;10.676;2022-08-19T11:34:40;21.60;99.90
11126;DHT22;5617;54.046;10.676;2022-08-19T11:36:50;21.60;99.90
11126;DHT22;5617;54.046;10.676;2022-08-19T11:39:01;21.50;99.90
11126;DHT22;5617;54.046;10.676;2022-08-19T11:41:08;21.50;99.90
11126;DHT22;5617;54.046;10.676;2022-08-19T11:43:16;21.50;99.90
11126;DHT22;5617;54.046;10.676;2022-08-19T11:45:24;21.50;99.90
11126;DHT22;5617;54.046;10.676;2022-08-19T11:47:33;21.60;99.90
11126;DHT22;5617;54.046;10.676;2022-08-19T11:49:41;21.60;99.90
11126;DHT22;5617;54.046;10.676;2022-08-19T11:51:49;21.60;99.90
11126;DHT22;5617;54.046;10.676;2022-08-19T11:53:59;21.60;99.90
11126;DHT22;5617;54.046;10.676;2022-08-19T11:56:08;21.60;99.90
11126;DHT22;5617;54.046;10.676;2022-08-19T11:58:18;21.60;99.90
11126;DHT22;5617;54.046;10.676;2022-08-19T12:00:26;21.60;99.90
11126;DHT22;5617;54.046;10.676;2022-08-19T12:02:34;21.60;99.90
11126;DHT22;5617;54.046;10.676;2022-08-19T12:04:42;21.70;99.90
11126;DHT22;5617;54.046;10.676;2022-08-19T12:06:50;21.70;99.90
11126;DHT22;5617;54.046;10.676;2022-08-19T12:09:01;21.70;99.90
11126;DHT22;5617;54.046;10.676;2022-08-19T12:11:11;21.80;99.90
11126;DHT22;5617;54.046;10.676;2022-08-19T12:13:19;21.80;99.90
11126;DHT22;5617;54.046;10.676;2022-08-19T12:15:28;21.80;99.90
11126;DHT22;5617;54.046;10.676;2022-08-19T12:17:36;21.80;99.90
11126;DHT22;5617;54.046;10.676;2022-08-19T12:19:43;21.90;99.90
11126;DHT22;5617;54.046;10.676;2022-08-19T12:21:51;21.90;99.90
11126;DHT22;5617;54.046;10.676;2022-08-19T12:24:04;21.90;99.90
11126;DHT22;5617;54.046;10.676;2022-08-19T12:26:13;21.90;99.90
11126;DHT22;5617;54.046;10.676;2022-08-19T12:28:22;22.00;99.90
11126;DHT22;5617;54.046;10.676;2022-08-19T12:30:30;22.10;99.90
11126;DHT22;5617;54.046;10.676;2022-08-19T12:32:39;22.20;99.90
11126;DHT22;5617;54.046;10.676;2022-08-19T12:34:46;22.20;99.90
11126;DHT22;5617;54.046;10.676;2022-08-19T12:36:54;22.20;99.90
11126;DHT22;5617;54.046;10.676;2022-08-19T12:39:04;22.20;99.90
11126;DHT22;5617;54.046;10.676;2022-08-19T12:41:15;22.20;99.90
11126;DHT22;5617;54.046;10.676;2022-08-19T12:43:27;22.30;99.90
11126;DHT22;5617;54.046;10.676;2022-08-19T12:45:35;22.30;99.90
11126;DHT22;5617;54.046;10.676;2022-08-19T12:47:44;22.30;99.90
11126;DHT22;5617;54.046;10.676;2022-08-19T12:49:52;22.30;99.90
11126;DHT22;5617;54.046;10.676;2022-08-19T12:52:01;22.30;99.90
11126;DHT22;5617;54.046;10.676;2022-08-19T12:54:11;22.30;99.90
11126;DHT22;5617;54.046;10.676;2022-08-19T12:56:19;22.30;99.90
11126;DHT22;5617;54.046;10.676;2022-08-19T12:58:27;22.50;99.90
11126;DHT22;5617;54.046;10.676;2022-08-19T13:00:35;22.40;99.90
11126;DHT22;5617;54.046;10.676;2022-08-19T13:02:45;22.40;99.90
11126;DHT22;5617;54.046;10.676;2022-08-19T13:04:55;22.40;99.90
11126;DHT22;5617;54.046;10.676;2022-08-19T13:07:03;22.40;99.90
11126;DHT22;5617;54.046;10.676;2022-08-19T13:09:15;22.40;99.90
11126;DHT22;5617;54.046;10.676;2022-08-19T13:11:24;22.50;99.90
11126;DHT22;5617;54.046;10.676;2022-08-19T13:13:36;22.50;99.90
11126;DHT22;5617;54.046;10.676;2022-08-19T13:15:43;22.50;99.90
11126;DHT22;5617;54.046;10.676;2022-08-19T13:17:53;22.50;99.90
11126;DHT22;5617;54.046;10.676;2022-08-19T13:20:02;22.60;99.90
11126;DHT22;5617;54.046;10.676;2022-08-19T13:22:12;22.60;99.90
11126;DHT22;5617;54.046;10.676;2022-08-19T13:24:23;22.60;99.90
11126;DHT22;5617;54.046;10.676;2022-08-19T13:26:30;22.60;99.90
11126;DHT22;5617;54.046;10.676;2022-08-19T13:28:39;22.60;99.90
11126;DHT22;5617;54.046;10.676;2022-08-19T13:31:05;22.50;99.90
11126;DHT22;5617;54.046;10.676;2022-08-19T13:33:31;22.50;99.90
11126;DHT22;5617;54.046;10.676;2022-08-19T13:35:42;22.50;99.90
11126;DHT22;5617;54.046;10.676;2022-08-19T13:37:50;22.60;99.90
11126;DHT22;5617;54.046;10.676;2022-08-19T13:40:00;22.60;99.90
11126;DHT22;5617;54.046;10.676;2022-08-19T13:42:10;22.60;99.90